sensor_id;sensor_type;location;lat;lon;timestamp;P1;durP1;ratioP1;P2;durP2;ratioP2
44728;SDS011;30457;53.590;9.922;2022-08-01T00:02:33;5.05;;;4.40;;
44728;SDS011;30457;53.590;9.922;2022-08-01T00:06:58;4.50;;;4.10;;
44728;SDS011;30457;53.590;9.922;2022-08-01T00:11:24;4.55;;;4.03;;
44728;SDS011;30457;53.590;9.922;2022-08-01T00:15:49;4.47;;;4.07;;
44728;SDS011;30457;53.590;9.922;2022-08-01T00:20:15;5.07;;;4.55;;
44728;SDS011;30457;53.590;9.922;2022-08-01T00:24:40;5.90;;;4.07;;
44728;SDS011;30457;53.590;9.922;2022-08-01T00:29:06;7.28;;;4.65;;
44728;SDS011;30457;53.590;9.922;2022-08-01T00:33:31;5.03;;;4.30;;
44728;SDS011;30457;53.590;9.922;2022-08-01T00:37:57;8.32;;;5.75;;
44728;SDS011;30457;53.590;9.922;2022-08-01T00:42:22;6.15;;;5.13;;
44728;SDS011;30457;53.590;9.922;2022-08-01T00:46:48;6.28;;;4.50;;
44728;SDS011;30457;53.590;9.922;2022-08-01T00:51:14;4.28;;;3.90;;
44728;SDS011;30457;53.590;9.922;2022-08-01T00:55:40;3.72;;;3.28;;
44728;SDS011;30457;53.590;9.922;2022-08-01T01:00:06;4.28;;;3.88;;
44728;SDS011;30457;53.590;9.922;2022-08-01T01:04:32;4.18;;;3.70;;
44728;SDS011;30457;53.590;9.922;2022-08-01T01:09:02;6.85;;;3.85;;
44728;SDS011;30457;53.590;9.922;2022-08-01T01:13:35;6.20;;;4.55;;
44728;SDS011;30457;53.590;9.922;2022-08-01T01:18:04;6.70;;;4.85;;
44728;SDS011;30457;53.590;9.922;2022-08-01T01:22:36;5.88;;;4.20;;
44728;SDS011;30457;53.590;9.922;2022-08-01T01:27:21;6.00;;;4.60;;
44728;SDS011;30457;53.590;9.922;2022-08-01T01:32:04;5.63;;;4.50;;
44728;SDS011;30457;53.590;9.922;2022-08-01T01:36:32;6.07;;;4.13;;
44728;SDS011;30457;53.590;9.922;2022-08-01T01:40:58;5.85;;;4.50;;
44728;SDS011;30457;53.590;9.922;2022-08-01T01:45:27;5.97;;;4.35;;
44728;SDS011;30457;53.590;9.922;2022-08-01T01:49:54;7.18;;;4.95;;
44728;SDS011;30457;53.590;9.922;2022-08-01T01:54:23;7.00;;;5.10;;
44728;SDS011;30457;53.590;9.922;2022-08-01T01:58:57;8.70;;;5.00;;
44728;SDS011;30457;53.590;9.922;2022-08-01T02:03:25;7.10;;;4.47;;
44728;SDS011;30457;53.590;9.922;2022-08-01T02:07:52;4.90;;;3.88;;
44728;SDS011;30457;53.590;9.922;2022-08-01T02:12:19;5.60;;;3.65;;
44728;SDS011;30457;53.590;9.922;2022-08-01T02:16:49;6.20;;;3.65;;
44728;SDS011;30457;53.590;9.922;2022-08-01T02:21:17;9.20;;;3.75;;
44728;SDS011;30457;53.590;9.922;2022-08-01T02:25:49;6.90;;;3.75;;
44728;SDS011;30457;53.590;9.922;2022-08-01T02:30:17;6.88;;;4.00;;
44728;SDS011;30457;53.590;9.922;2022-08-01T02:34:44;7.70;;;3.58;;
44728;SDS011;30457;53.590;9.922;2022-08-01T02:39:14;4.07;;;3.22;;
44728;SDS011;30457;53.590;9.922;2022-08-01T02:43:43;3.92;;;3.10;;
44728;SDS011;30457;53.590;9.922;2022-08-01T02:48:14;4.78;;;3.35;;
44728;SDS011;30457;53.590;9.922;2022-08-01T02:52:42;7.88;;;3.80;;
44728;SDS011;30457;53.590;9.922;2022-08-01T02:57:10;3.50;;;3.20;;
44728;SDS011;30457;53.590;9.922;2022-08-01T03:01:37;5.28;;;4.25;;
44728;SDS011;30457;53.590;9.922;2022-08-01T03:06:04;5.85;;;4.45;;
44728;SDS011;30457;53.590;9.922;2022-08-01T03:10:31;4.03;;;3.30;;
44728;SDS011;30457;53.590;9.922;2022-08-01T03:14:58;10.98;;;4.65;;
44728;SDS011;30457;53.590;9.922;2022-08-01T03:19:25;5.30;;;3.60;;
44728;SDS011;30457;53.590;9.922;2022-08-01T03:23:52;3.95;;;3.28;;
44728;SDS011;30457;53.590;9.922;2022-08-01T03:28:22;6.88;;;3.72;;
44728;SDS011;30457;53.590;9.922;2022-08-01T03:32:50;6.30;;;3.25;;
44728;SDS011;30457;53.590;9.922;2022-08-01T03:37:19;7.30;;;3.63;;
44728;SDS011;30457;53.590;9.922;2022-08-01T03:41:54;6.18;;;3.33;;
44728;SDS011;30457;53.590;9.922;2022-08-01T03:46:35;3.70;;;2.97;;
44728;SDS011;30457;53.590;9.922;2022-08-01T03:51:05;3.15;;;2.72;;
44728;SDS011;30457;53.590;9.922;2022-08-01T03:55:32;3.03;;;2.63;;
44728;SDS011;30457;53.590;9.922;2022-08-01T04:00:03;5.63;;;2.25;;
44728;SDS011;30457;53.590;9.922;2022-08-01T04:04:37;2.70;;;2.33;;
44728;SDS011;30457;53.590;9.922;2022-08-01T04:09:03;5.00;;;3.03;;
44728;SDS011;30457;53.590;9.922;2022-08-01T04:13:28;3.03;;;2.60;;
44728;SDS011;30457;53.590;9.922;2022-08-01T04:17:55;3.55;;;2.75;;
44728;SDS011;30457;53.590;9.922;2022-08-01T04:22:20;2.58;;;2.38;;
44728;SDS011;30457;53.590;9.922;2022-08-01T04:26:46;5.15;;;2.40;;
44728;SDS011;30457;53.590;9.922;2022-08-01T04:31:14;3.60;;;2.30;;
44728;SDS011;30457;53.590;9.922;2022-08-01T04:35:45;2.00;;;1.90;;
44728;SDS011;30457;53.590;9.922;2022-08-01T04:40:12;3.30;;;1.80;;
44728;SDS011;30457;53.590;9.922;2022-08-01T04:44:39;2.10;;;1.80;;
44728;SDS011;30457;53.590;9.922;2022-08-01T04:49:06;3.63;;;1.90;;
44728;SDS011;30457;53.590;9.922;2022-08-01T04:53:33;2.08;;;1.60;;
44728;SDS011;30457;53.590;9.922;2022-08-01T04:57:59;6.78;;;1.17;;
44728;SDS011;30457;53.590;9.922;2022-08-01T05:02:24;1.58;;;1.30;;
44728;SDS011;30457;53.590;9.922;2022-08-01T05:06:53;1.10;;;1.00;;
44728;SDS011;30457;53.590;9.922;2022-08-01T05:11:18;1.10;;;0.90;;
44728;SDS011;30457;53.590;9.922;2022-08-01T05:15:44;1.58;;;1.05;;
44728;SDS011;30457;53.590;9.922;2022-08-01T05:20:10;5.88;;;1.65;;
44728;SDS011;30457;53.590;9.922;2022-08-01T05:24:37;1.88;;;1.10;;
44728;SDS011;30457;53.590;9.922;2022-08-01T05:29:03;1.77;;;1.15;;
44728;SDS011;30457;53.590;9.922;2022-08-01T05:33:29;1.92;;;1.50;;
44728;SDS011;30457;53.590;9.922;2022-08-01T05:37:55;3.08;;;1.98;;
44728;SDS011;30457;53.590;9.922;2022-08-01T05:42:21;6.68;;;3.08;;
44728;SDS011;30457;53.590;9.922;2022-08-01T05:46:46;2.22;;;2.03;;
44728;SDS011;30457;53.590;9.922;2022-08-01T05:51:12;4.90;;;2.20;;
44728;SDS011;30457;53.590;9.922;2022-08-01T05:55:38;3.13;;;2.67;;
44728;SDS011;30457;53.590;9.922;2022-08-01T06:00:03;3.33;;;2.80;;
44728;SDS011;30457;53.590;9.922;2022-08-01T06:04:36;4.90;;;3.10;;
44728;SDS011;30457;53.590;9.922;2022-08-01T06:09:02;5.43;;;3.15;;
44728;SDS011;30457;53.590;9.922;2022-08-01T06:13:28;7.80;;;3.97;;
44728;SDS011;30457;53.590;9.922;2022-08-01T06:17:53;4.70;;;2.67;;
44728;SDS011;30457;53.590;9.922;2022-08-01T06:22:19;4.93;;;3.42;;
44728;SDS011;30457;53.590;9.922;2022-08-01T06:26:44;5.95;;;3.55;;
44728;SDS011;30457;53.590;9.922;2022-08-01T06:31:10;6.53;;;3.55;;
44728;SDS011;30457;53.590;9.922;2022-08-01T06:35:37;12.88;;;4.63;;
44728;SDS011;30457;53.590;9.922;2022-08-01T06:40:03;5.65;;;2.90;;
44728;SDS011;30457;53.590;9.922;2022-08-01T06:44:29;7.07;;;3.90;;
44728;SDS011;30457;53.590;9.922;2022-08-01T06:48:55;9.38;;;3.67;;
44728;SDS011;30457;53.590;9.922;2022-08-01T06:53:21;5.38;;;4.00;;
44728;SDS011;30457;53.590;9.922;2022-08-01T06:57:50;7.13;;;3.05;;
44728;SDS011;30457;53.590;9.922;2022-08-01T07:02:16;7.68;;;3.65;;
44728;SDS011;30457;53.590;9.922;2022-08-01T07:06:42;5.35;;;2.95;;
44728;SDS011;30457;53.590;9.922;2022-08-01T07:11:07;3.45;;;2.55;;
44728;SDS011;30457;53.590;9.922;2022-08-01T07:15:37;5.03;;;2.60;;
44728;SDS011;30457;53.590;9.922;2022-08-01T07:20:03;7.57;;;3.78;;
44728;SDS011;30457;53.590;9.922;2022-08-01T07:24:29;10.95;;;3.92;;
44728;SDS011;30457;53.590;9.922;2022-08-01T07:28:55;5.13;;;3.58;;
44728;SDS011;30457;53.590;9.922;2022-08-01T07:33:20;14.75;;;4.22;;
44728;SDS011;30457;53.590;9.922;2022-08-01T07:37:47;9.65;;;2.88;;
44728;SDS011;30457;53.590;9.922;2022-08-01T07:42:12;8.25;;;2.50;;
44728;SDS011;30457;53.590;9.922;2022-08-01T07:46:38;11.07;;;3.08;;
44728;SDS011;30457;53.590;9.922;2022-08-01T07:51:03;6.72;;;1.60;;
44728;SDS011;30457;53.590;9.922;2022-08-01T07:55:29;6.45;;;1.90;;
44728;SDS011;30457;53.590;9.922;2022-08-01T07:59:55;4.82;;;2.22;;
44728;SDS011;30457;53.590;9.922;2022-08-01T08:04:20;8.25;;;1.80;;
44728;SDS011;30457;53.590;9.922;2022-08-01T08:08:46;6.40;;;1.83;;
44728;SDS011;30457;53.590;9.922;2022-08-01T08:13:12;5.95;;;1.13;;
44728;SDS011;30457;53.590;9.922;2022-08-01T08:17:37;3.47;;;1.48;;
44728;SDS011;30457;53.590;9.922;2022-08-01T08:22:04;6.85;;;1.83;;
44728;SDS011;30457;53.590;9.922;2022-08-01T08:26:30;14.65;;;2.22;;
44728;SDS011;30457;53.590;9.922;2022-08-01T08:30:56;9.05;;;1.80;;
44728;SDS011;30457;53.590;9.922;2022-08-01T08:35:22;5.47;;;1.67;;
44728;SDS011;30457;53.590;9.922;2022-08-01T08:39:47;4.65;;;1.50;;
44728;SDS011;30457;53.590;9.922;2022-08-01T08:44:13;8.85;;;1.58;;
44728;SDS011;30457;53.590;9.922;2022-08-01T08:48:39;9.98;;;1.77;;
44728;SDS011;30457;53.590;9.922;2022-08-01T08:53:06;4.82;;;1.60;;
44728;SDS011;30457;53.590;9.922;2022-08-01T08:57:35;3.17;;;1.05;;
44728;SDS011;30457;53.590;9.922;2022-08-01T09:02:04;5.38;;;1.75;;
44728;SDS011;30457;53.590;9.922;2022-08-01T09:06:30;5.07;;;1.40;;
44728;SDS011;30457;53.590;9.922;2022-08-01T09:15:53;5.05;;;1.10;;
44728;SDS011;30457;53.590;9.922;2022-08-01T09:20:22;7.20;;;1.55;;
44728;SDS011;30457;53.590;9.922;2022-08-01T09:25:05;8.18;;;2.15;;
44728;SDS011;30457;53.590;9.922;2022-08-01T09:29:32;7.38;;;1.85;;
44728;SDS011;30457;53.590;9.922;2022-08-01T09:33:58;5.78;;;2.20;;
44728;SDS011;30457;53.590;9.922;2022-08-01T09:38:27;6.93;;;1.85;;
44728;SDS011;30457;53.590;9.922;2022-08-01T09:42:52;8.73;;;1.75;;
44728;SDS011;30457;53.590;9.922;2022-08-01T09:47:38;13.98;;;2.00;;
44728;SDS011;30457;53.590;9.922;2022-08-01T09:52:12;9.18;;;2.53;;
44728;SDS011;30457;53.590;9.922;2022-08-01T09:56:42;11.10;;;2.60;;
44728;SDS011;30457;53.590;9.922;2022-08-01T10:01:08;5.65;;;2.03;;
44728;SDS011;30457;53.590;9.922;2022-08-01T10:05:34;5.25;;;2.47;;
44728;SDS011;30457;53.590;9.922;2022-08-01T10:10:10;6.82;;;2.15;;
44728;SDS011;30457;53.590;9.922;2022-08-01T10:14:37;7.70;;;2.22;;
44728;SDS011;30457;53.590;9.922;2022-08-01T10:19:05;8.13;;;2.55;;
44728;SDS011;30457;53.590;9.922;2022-08-01T10:23:35;9.82;;;2.38;;
44728;SDS011;30457;53.590;9.922;2022-08-01T10:28:04;4.43;;;1.58;;
44728;SDS011;30457;53.590;9.922;2022-08-01T10:32:35;9.18;;;1.90;;
44728;SDS011;30457;53.590;9.922;2022-08-01T10:37:02;6.95;;;1.70;;
44728;SDS011;30457;53.590;9.922;2022-08-01T10:41:28;4.05;;;1.40;;
44728;SDS011;30457;53.590;9.922;2022-08-01T10:45:54;7.38;;;1.45;;
44728;SDS011;30457;53.590;9.922;2022-08-01T10:50:23;3.58;;;1.20;;
44728;SDS011;30457;53.590;9.922;2022-08-01T10:55:04;6.10;;;1.50;;
44728;SDS011;30457;53.590;9.922;2022-08-01T10:59:36;4.60;;;1.13;;
44728;SDS011;30457;53.590;9.922;2022-08-01T11:04:16;5.15;;;1.48;;
44728;SDS011;30457;53.590;9.922;2022-08-01T11:08:43;6.03;;;1.10;;
44728;SDS011;30457;53.590;9.922;2022-08-01T11:13:16;4.28;;;0.98;;
44728;SDS011;30457;53.590;9.922;2022-08-01T11:18:28;6.65;;;1.23;;
44728;SDS011;30457;53.590;9.922;2022-08-01T11:27:28;5.15;;;1.23;;
44728;SDS011;30457;53.590;9.922;2022-08-01T11:31:55;3.83;;;0.90;;
44728;SDS011;30457;53.590;9.922;2022-08-01T11:41:36;4.43;;;1.23;;
44728;SDS011;30457;53.590;9.922;2022-08-01T11:46:02;3.13;;;1.20;;
44728;SDS011;30457;53.590;9.922;2022-08-01T11:54:58;3.92;;;1.38;;
44728;SDS011;30457;53.590;9.922;2022-08-01T11:59:38;3.70;;;1.10;;
44728;SDS011;30457;53.590;9.922;2022-08-01T12:08:31;10.32;;;1.50;;
44728;SDS011;30457;53.590;9.922;2022-08-01T12:12:59;3.08;;;1.00;;
44728;SDS011;30457;53.590;9.922;2022-08-01T12:17:34;4.60;;;1.17;;
44728;SDS011;30457;53.590;9.922;2022-08-01T12:22:07;6.65;;;1.50;;
44728;SDS011;30457;53.590;9.922;2022-08-01T12:26:41;3.67;;;1.00;;
44728;SDS011;30457;53.590;9.922;2022-08-01T12:31:06;2.78;;;1.13;;
44728;SDS011;30457;53.590;9.922;2022-08-01T12:35:34;3.08;;;1.02;;
44728;SDS011;30457;53.590;9.922;2022-08-01T12:40:02;2.35;;;0.90;;
44728;SDS011;30457;53.590;9.922;2022-08-01T12:44:34;6.90;;;1.27;;
44728;SDS011;30457;53.590;9.922;2022-08-01T12:49:00;6.38;;;1.00;;
44728;SDS011;30457;53.590;9.922;2022-08-01T12:53:25;3.15;;;1.00;;
44728;SDS011;30457;53.590;9.922;2022-08-01T12:58:04;5.78;;;1.23;;
44728;SDS011;30457;53.590;9.922;2022-08-01T13:02:35;4.05;;;1.33;;
44728;SDS011;30457;53.590;9.922;2022-08-01T13:07:01;3.10;;;1.00;;
44728;SDS011;30457;53.590;9.922;2022-08-01T13:11:26;3.13;;;0.95;;
44728;SDS011;30457;53.590;9.922;2022-08-01T13:16:02;3.17;;;0.80;;
44728;SDS011;30457;53.590;9.922;2022-08-01T13:20:30;3.55;;;0.90;;
44728;SDS011;30457;53.590;9.922;2022-08-01T13:25:12;3.00;;;0.80;;
44728;SDS011;30457;53.590;9.922;2022-08-01T13:29:39;3.83;;;1.13;;
44728;SDS011;30457;53.590;9.922;2022-08-01T13:34:09;4.63;;;1.00;;
44728;SDS011;30457;53.590;9.922;2022-08-01T13:38:35;2.35;;;0.88;;
44728;SDS011;30457;53.590;9.922;2022-08-01T13:43:20;3.63;;;1.05;;
44728;SDS011;30457;53.590;9.922;2022-08-01T13:47:45;7.55;;;1.20;;
44728;SDS011;30457;53.590;9.922;2022-08-01T13:52:11;2.42;;;0.93;;
44728;SDS011;30457;53.590;9.922;2022-08-01T13:56:36;4.78;;;1.33;;
44728;SDS011;30457;53.590;9.922;2022-08-01T14:01:02;3.50;;;0.95;;
44728;SDS011;30457;53.590;9.922;2022-08-01T14:05:27;2.67;;;0.82;;
44728;SDS011;30457;53.590;9.922;2022-08-01T14:09:53;3.50;;;1.25;;
44728;SDS011;30457;53.590;9.922;2022-08-01T14:14:19;3.17;;;1.15;;
44728;SDS011;30457;53.590;9.922;2022-08-01T14:18:44;3.30;;;0.93;;
44728;SDS011;30457;53.590;9.922;2022-08-01T14:23:10;4.47;;;1.00;;
44728;SDS011;30457;53.590;9.922;2022-08-01T14:27:36;2.97;;;0.77;;
44728;SDS011;30457;53.590;9.922;2022-08-01T14:32:01;4.47;;;0.85;;
44728;SDS011;30457;53.590;9.922;2022-08-01T14:36:27;3.70;;;1.00;;
44728;SDS011;30457;53.590;9.922;2022-08-01T14:40:54;3.45;;;1.02;;
44728;SDS011;30457;53.590;9.922;2022-08-01T14:45:20;5.32;;;1.00;;
44728;SDS011;30457;53.590;9.922;2022-08-01T14:49:45;5.30;;;1.17;;
44728;SDS011;30457;53.590;9.922;2022-08-01T14:54:11;10.20;;;1.73;;
44728;SDS011;30457;53.590;9.922;2022-08-01T14:58:36;4.13;;;0.90;;
44728;SDS011;30457;53.590;9.922;2022-08-01T15:03:02;7.40;;;1.10;;
44728;SDS011;30457;53.590;9.922;2022-08-01T15:07:28;2.13;;;0.98;;
44728;SDS011;30457;53.590;9.922;2022-08-01T15:11:53;3.47;;;0.90;;
44728;SDS011;30457;53.590;9.922;2022-08-01T15:16:19;9.35;;;1.33;;
44728;SDS011;30457;53.590;9.922;2022-08-01T15:20:44;2.67;;;0.90;;
44728;SDS011;30457;53.590;9.922;2022-08-01T15:25:10;4.70;;;0.90;;
44728;SDS011;30457;53.590;9.922;2022-08-01T15:29:36;4.95;;;1.00;;
44728;SDS011;30457;53.590;9.922;2022-08-01T15:34:02;5.80;;;1.20;;
44728;SDS011;30457;53.590;9.922;2022-08-01T15:38:27;6.90;;;1.85;;
44728;SDS011;30457;53.590;9.922;2022-08-01T15:42:53;5.97;;;1.48;;
44728;SDS011;30457;53.590;9.922;2022-08-01T15:47:18;4.30;;;0.98;;
44728;SDS011;30457;53.590;9.922;2022-08-01T15:51:44;3.85;;;1.30;;
44728;SDS011;30457;53.590;9.922;2022-08-01T15:56:10;7.47;;;1.42;;
44728;SDS011;30457;53.590;9.922;2022-08-01T16:00:35;14.20;;;1.60;;
44728;SDS011;30457;53.590;9.922;2022-08-01T16:05:01;6.45;;;1.40;;
44728;SDS011;30457;53.590;9.922;2022-08-01T16:09:27;9.95;;;1.30;;
44728;SDS011;30457;53.590;9.922;2022-08-01T16:13:53;6.93;;;1.58;;
44728;SDS011;30457;53.590;9.922;2022-08-01T16:18:18;5.22;;;1.40;;
44728;SDS011;30457;53.590;9.922;2022-08-01T16:22:44;5.90;;;1.10;;
44728;SDS011;30457;53.590;9.922;2022-08-01T16:27:10;7.03;;;1.48;;
44728;SDS011;30457;53.590;9.922;2022-08-01T16:31:36;3.55;;;1.20;;
44728;SDS011;30457;53.590;9.922;2022-08-01T16:36:01;6.22;;;1.45;;
44728;SDS011;30457;53.590;9.922;2022-08-01T16:40:28;4.50;;;1.10;;
44728;SDS011;30457;53.590;9.922;2022-08-01T16:44:53;3.67;;;1.00;;
44728;SDS011;30457;53.590;9.922;2022-08-01T16:49:19;4.60;;;1.30;;
44728;SDS011;30457;53.590;9.922;2022-08-01T16:53:44;3.70;;;1.40;;
44728;SDS011;30457;53.590;9.922;2022-08-01T16:58:10;3.60;;;1.10;;
44728;SDS011;30457;53.590;9.922;2022-08-01T17:02:40;6.57;;;1.23;;
44728;SDS011;30457;53.590;9.922;2022-08-01T17:07:06;5.38;;;1.20;;
44728;SDS011;30457;53.590;9.922;2022-08-01T17:11:31;4.47;;;1.45;;
44728;SDS011;30457;53.590;9.922;2022-08-01T17:15:58;2.92;;;1.40;;
44728;SDS011;30457;53.590;9.922;2022-08-01T17:20:23;6.60;;;1.30;;
44728;SDS011;30457;53.590;9.922;2022-08-01T17:24:49;7.28;;;1.10;;
44728;SDS011;30457;53.590;9.922;2022-08-01T17:29:17;3.88;;;1.00;;
44728;SDS011;30457;53.590;9.922;2022-08-01T17:33:43;3.20;;;0.90;;
44728;SDS011;30457;53.590;9.922;2022-08-01T17:38:08;4.60;;;1.40;;
44728;SDS011;30457;53.590;9.922;2022-08-01T17:42:34;5.28;;;1.40;;
44728;SDS011;30457;53.590;9.922;2022-08-01T17:46:59;5.72;;;0.90;;
44728;SDS011;30457;53.590;9.922;2022-08-01T17:51:25;4.72;;;1.40;;
44728;SDS011;30457;53.590;9.922;2022-08-01T17:55:50;4.80;;;1.15;;
44728;SDS011;30457;53.590;9.922;2022-08-01T18:00:16;5.20;;;0.82;;
44728;SDS011;30457;53.590;9.922;2022-08-01T18:04:41;3.33;;;1.10;;
44728;SDS011;30457;53.590;9.922;2022-08-01T18:09:07;3.67;;;1.42;;
44728;SDS011;30457;53.590;9.922;2022-08-01T18:13:34;1.55;;;0.60;;
44728;SDS011;30457;53.590;9.922;2022-08-01T18:18:00;22.02;;;1.65;;
44728;SDS011;30457;53.590;9.922;2022-08-01T18:22:25;6.35;;;1.58;;
44728;SDS011;30457;53.590;9.922;2022-08-01T18:26:51;3.85;;;0.88;;
44728;SDS011;30457;53.590;9.922;2022-08-01T18:31:18;5.10;;;1.33;;
44728;SDS011;30457;53.590;9.922;2022-08-01T18:35:44;4.03;;;0.80;;
44728;SDS011;30457;53.590;9.922;2022-08-01T18:40:10;4.10;;;1.27;;
44728;SDS011;30457;53.590;9.922;2022-08-01T18:44:35;5.53;;;0.98;;
44728;SDS011;30457;53.590;9.922;2022-08-01T18:49:01;4.75;;;1.10;;
44728;SDS011;30457;53.590;9.922;2022-08-01T18:53:26;6.50;;;1.27;;
44728;SDS011;30457;53.590;9.922;2022-08-01T18:57:52;4.90;;;1.15;;
44728;SDS011;30457;53.590;9.922;2022-08-01T19:02:17;5.10;;;1.10;;
44728;SDS011;30457;53.590;9.922;2022-08-01T19:06:43;2.88;;;0.88;;
44728;SDS011;30457;53.590;9.922;2022-08-01T19:11:09;5.80;;;1.20;;
44728;SDS011;30457;53.590;9.922;2022-08-01T19:15:34;5.53;;;1.30;;
44728;SDS011;30457;53.590;9.922;2022-08-01T19:20:00;6.65;;;2.28;;
44728;SDS011;30457;53.590;9.922;2022-08-01T19:24:26;2.67;;;1.00;;
44728;SDS011;30457;53.590;9.922;2022-08-01T19:28:56;6.40;;;0.95;;
44728;SDS011;30457;53.590;9.922;2022-08-01T19:33:25;3.70;;;1.10;;
44728;SDS011;30457;53.590;9.922;2022-08-01T19:37:52;2.00;;;1.05;;
44728;SDS011;30457;53.590;9.922;2022-08-01T19:42:21;2.72;;;0.98;;
44728;SDS011;30457;53.590;9.922;2022-08-01T19:46:53;4.30;;;0.88;;
44728;SDS011;30457;53.590;9.922;2022-08-01T19:51:20;1.48;;;0.82;;
44728;SDS011;30457;53.590;9.922;2022-08-01T19:55:46;8.77;;;1.52;;
44728;SDS011;30457;53.590;9.922;2022-08-01T20:00:12;5.57;;;1.80;;
44728;SDS011;30457;53.590;9.922;2022-08-01T20:04:41;3.88;;;1.30;;
44728;SDS011;30457;53.590;9.922;2022-08-01T20:09:07;4.78;;;1.55;;
44728;SDS011;30457;53.590;9.922;2022-08-01T20:13:33;5.93;;;1.17;;
44728;SDS011;30457;53.590;9.922;2022-08-01T20:17:59;4.53;;;1.25;;
44728;SDS011;30457;53.590;9.922;2022-08-01T20:22:25;4.22;;;1.15;;
44728;SDS011;30457;53.590;9.922;2022-08-01T20:26:56;5.72;;;1.20;;
44728;SDS011;30457;53.590;9.922;2022-08-01T20:31:25;5.07;;;1.08;;
44728;SDS011;30457;53.590;9.922;2022-08-01T20:35:52;1.80;;;0.90;;
44728;SDS011;30457;53.590;9.922;2022-08-01T20:40:18;6.57;;;1.60;;
44728;SDS011;30457;53.590;9.922;2022-08-01T20:44:45;10.95;;;2.10;;
44728;SDS011;30457;53.590;9.922;2022-08-01T20:49:13;3.78;;;0.80;;
44728;SDS011;30457;53.590;9.922;2022-08-01T20:53:44;5.30;;;1.10;;
44728;SDS011;30457;53.590;9.922;2022-08-01T20:58:14;4.45;;;0.95;;
44728;SDS011;30457;53.590;9.922;2022-08-01T21:07:32;2.80;;;1.30;;
44728;SDS011;30457;53.590;9.922;2022-08-01T21:12:01;2.17;;;0.90;;
44728;SDS011;30457;53.590;9.922;2022-08-01T21:16:28;4.55;;;1.10;;
44728;SDS011;30457;53.590;9.922;2022-08-01T21:20:58;4.60;;;1.65;;
44728;SDS011;30457;53.590;9.922;2022-08-01T21:25:28;3.97;;;1.13;;
44728;SDS011;30457;53.590;9.922;2022-08-01T21:29:57;4.00;;;1.15;;
44728;SDS011;30457;53.590;9.922;2022-08-01T21:34:24;6.60;;;1.42;;
44728;SDS011;30457;53.590;9.922;2022-08-01T21:38:50;1.77;;;0.93;;
44728;SDS011;30457;53.590;9.922;2022-08-01T21:43:17;2.85;;;1.85;;
44728;SDS011;30457;53.590;9.922;2022-08-01T21:47:43;2.13;;;0.82;;
44728;SDS011;30457;53.590;9.922;2022-08-01T21:52:10;3.35;;;1.00;;
44728;SDS011;30457;53.590;9.922;2022-08-01T21:56:45;4.30;;;1.23;;
44728;SDS011;30457;53.590;9.922;2022-08-01T22:01:26;3.17;;;1.00;;
44728;SDS011;30457;53.590;9.922;2022-08-01T22:05:59;4.90;;;2.13;;
44728;SDS011;30457;53.590;9.922;2022-08-01T22:10:28;1.48;;;0.90;;
44728;SDS011;30457;53.590;9.922;2022-08-01T22:14:54;3.75;;;1.02;;
44728;SDS011;30457;53.590;9.922;2022-08-01T22:19:21;3.20;;;0.80;;
44728;SDS011;30457;53.590;9.922;2022-08-01T22:23:49;3.50;;;0.95;;
44728;SDS011;30457;53.590;9.922;2022-08-01T22:28:15;3.22;;;1.27;;
44728;SDS011;30457;53.590;9.922;2022-08-01T22:32:43;4.07;;;1.30;;
44728;SDS011;30457;53.590;9.922;2022-08-01T22:37:10;1.50;;;1.00;;
44728;SDS011;30457;53.590;9.922;2022-08-01T22:41:35;2.70;;;1.23;;
44728;SDS011;30457;53.590;9.922;2022-08-01T22:46:16;2.40;;;0.88;;
44728;SDS011;30457;53.590;9.922;2022-08-01T22:56:24;2.60;;;1.13;;
44728;SDS011;30457;53.590;9.922;2022-08-01T23:00:53;2.90;;;0.95;;
44728;SDS011;30457;53.590;9.922;2022-08-01T23:05:21;4.97;;;1.00;;
44728;SDS011;30457;53.590;9.922;2022-08-01T23:09:49;2.30;;;0.88;;
44728;SDS011;30457;53.590;9.922;2022-08-01T23:14:18;5.25;;;2.35;;
44728;SDS011;30457;53.590;9.922;2022-08-01T23:18:46;2.08;;;0.80;;
44728;SDS011;30457;53.590;9.922;2022-08-01T23:23:13;3.35;;;1.25;;
44728;SDS011;30457;53.590;9.922;2022-08-01T23:27:41;2.08;;;0.93;;
44728;SDS011;30457;53.590;9.922;2022-08-01T23:32:08;4.72;;;1.10;;
44728;SDS011;30457;53.590;9.922;2022-08-01T23:36:34;4.72;;;0.88;;
44728;SDS011;30457;53.590;9.922;2022-08-01T23:41:00;2.97;;;0.93;;
44728;SDS011;30457;53.590;9.922;2022-08-01T23:45:26;3.30;;;0.95;;
44728;SDS011;30457;53.590;9.922;2022-08-01T23:49:51;1.55;;;0.75;;
44728;SDS011;30457;53.590;9.922;2022-08-01T23:54:17;4.00;;;0.95;;
44728;SDS011;30457;53.590;9.922;2022-08-01T23:58:43;2.60;;;0.77;;
